sensor_id;sensor_type;location;lat;lon;timestamp;temperature;humidity
47336;DHT22;33068;51.990;5.926;2023-02-22T00:01:10;7.10;99.90
47336;DHT22;33068;51.990;5.926;2023-02-22T00:03:48;7.10;99.90
47336;DHT22;33068;51.990;5.926;2023-02-22T00:06:19;7.00;99.90
47336;DHT22;33068;51.990;5.926;2023-02-22T00:08:51;7.00;99.90
47336;DHT22;33068;51.990;5.926;2023-02-22T00:11:20;7.00;99.90
47336;DHT22;33068;51.990;5.926;2023-02-22T00:13:47;7.10;99.90
47336;DHT22;33068;51.990;5.926;2023-02-22T00:16:17;7.10;99.90
47336;DHT22;33068;51.990;5.926;2023-02-22T00:18:45;7.00;99.90
47336;DHT22;33068;51.990;5.926;2023-02-22T00:21:13;7.10;99.90
47336;DHT22;33068;51.990;5.926;2023-02-22T00:23:44;7.10;99.90
47336;DHT22;33068;51.990;5.926;2023-02-22T00:26:14;7.10;99.90
47336;DHT22;33068;51.990;5.926;2023-02-22T00:28:46;7.20;99.90
47336;DHT22;33068;51.990;5.926;2023-02-22T00:31:13;7.00;99.90
47336;DHT22;33068;51.990;5.926;2023-02-22T00:33:41;7.00;99.90
47336;DHT22;33068;51.990;5.926;2023-02-22T00:36:10;7.00;99.90
47336;DHT22;33068;51.990;5.926;2023-02-22T00:38:38;7.00;99.90
47336;DHT22;33068;51.990;5.926;2023-02-22T00:41:05;7.00;99.90
47336;DHT22;33068;51.990;5.926;2023-02-22T00:43:37;7.00;99.90
47336;DHT22;33068;51.990;5.926;2023-02-22T00:46:04;7.00;99.90
47336;DHT22;33068;51.990;5.926;2023-02-22T00:48:33;7.00;99.90
47336;DHT22;33068;51.990;5.926;2023-02-22T00:51:03;7.00;99.90
47336;DHT22;33068;51.990;5.926;2023-02-22T00:53:31;7.00;99.90
47336;DHT22;33068;51.990;5.926;2023-02-22T00:56:00;6.90;99.90
47336;DHT22;33068;51.990;5.926;2023-02-22T00:58:31;6.90;99.90
47336;DHT22;33068;51.990;5.926;2023-02-22T01:01:00;6.90;99.90
47336;DHT22;33068;51.990;5.926;2023-02-22T01:03:27;6.90;99.90
47336;DHT22;33068;51.990;5.926;2023-02-22T01:05:55;7.00;99.90
47336;DHT22;33068;51.990;5.926;2023-02-22T01:08:23;6.80;99.90
47336;DHT22;33068;51.990;5.926;2023-02-22T01:10:51;6.90;99.90
47336;DHT22;33068;51.990;5.926;2023-02-22T01:13:18;6.80;99.90
47336;DHT22;33068;51.990;5.926;2023-02-22T01:15:45;6.50;99.90
47336;DHT22;33068;51.990;5.926;2023-02-22T01:18:14;7.00;99.90
47336;DHT22;33068;51.990;5.926;2023-02-22T01:20:42;6.90;99.90
47336;DHT22;33068;51.990;5.926;2023-02-22T01:23:14;6.80;99.90
47336;DHT22;33068;51.990;5.926;2023-02-22T01:25:42;6.80;99.90
47336;DHT22;33068;51.990;5.926;2023-02-22T01:28:10;6.90;99.90
47336;DHT22;33068;51.990;5.926;2023-02-22T01:30:38;6.90;99.90
47336;DHT22;33068;51.990;5.926;2023-02-22T01:33:06;6.80;99.90
47336;DHT22;33068;51.990;5.926;2023-02-22T01:35:40;6.80;99.90
47336;DHT22;33068;51.990;5.926;2023-02-22T01:38:08;6.80;99.90
47336;DHT22;33068;51.990;5.926;2023-02-22T01:40:37;6.70;99.90
47336;DHT22;33068;51.990;5.926;2023-02-22T01:43:15;6.80;99.90
47336;DHT22;33068;51.990;5.926;2023-02-22T01:45:57;6.70;99.90
47336;DHT22;33068;51.990;5.926;2023-02-22T01:48:32;6.70;99.90
47336;DHT22;33068;51.990;5.926;2023-02-22T01:51:05;6.70;99.90
47336;DHT22;33068;51.990;5.926;2023-02-22T01:53:39;6.60;99.90
47336;DHT22;33068;51.990;5.926;2023-02-22T01:56:07;6.50;99.90
47336;DHT22;33068;51.990;5.926;2023-02-22T01:58:37;6.60;99.90
47336;DHT22;33068;51.990;5.926;2023-02-22T02:01:05;6.60;99.90
47336;DHT22;33068;51.990;5.926;2023-02-22T02:03:35;6.50;99.90
47336;DHT22;33068;51.990;5.926;2023-02-22T02:06:08;6.80;99.90
47336;DHT22;33068;51.990;5.926;2023-02-22T02:08:44;6.50;99.90
47336;DHT22;33068;51.990;5.926;2023-02-22T02:11:16;6.40;99.90
47336;DHT22;33068;51.990;5.926;2023-02-22T02:13:44;6.50;99.90
47336;DHT22;33068;51.990;5.926;2023-02-22T02:16:12;6.50;99.90
47336;DHT22;33068;51.990;5.926;2023-02-22T02:18:39;6.50;99.90
47336;DHT22;33068;51.990;5.926;2023-02-22T02:21:47;6.50;99.90
47336;DHT22;33068;51.990;5.926;2023-02-22T02:24:47;6.50;99.90
47336;DHT22;33068;51.990;5.926;2023-02-22T02:27:19;6.50;99.90
47336;DHT22;33068;51.990;5.926;2023-02-22T02:33:06;6.40;99.90
47336;DHT22;33068;51.990;5.926;2023-02-22T02:35:47;6.80;99.90
47336;DHT22;33068;51.990;5.926;2023-02-22T02:38:21;6.40;99.90
47336;DHT22;33068;51.990;5.926;2023-02-22T02:41:00;6.40;99.90
47336;DHT22;33068;51.990;5.926;2023-02-22T02:43:33;6.40;99.90
47336;DHT22;33068;51.990;5.926;2023-02-22T02:46:06;6.30;99.90
47336;DHT22;33068;51.990;5.926;2023-02-22T02:48:40;6.40;99.90
47336;DHT22;33068;51.990;5.926;2023-02-22T02:51:10;6.60;99.90
47336;DHT22;33068;51.990;5.926;2023-02-22T02:53:42;6.40;99.90
47336;DHT22;33068;51.990;5.926;2023-02-22T02:56:10;6.30;99.90
47336;DHT22;33068;51.990;5.926;2023-02-22T02:58:45;6.30;99.90
47336;DHT22;33068;51.990;5.926;2023-02-22T03:01:19;6.20;99.90
47336;DHT22;33068;51.990;5.926;2023-02-22T03:04:07;6.10;99.90
47336;DHT22;33068;51.990;5.926;2023-02-22T03:07:09;6.20;99.90
47336;DHT22;33068;51.990;5.926;2023-02-22T03:09:51;6.10;99.90
47336;DHT22;33068;51.990;5.926;2023-02-22T03:12:35;6.10;99.90
47336;DHT22;33068;51.990;5.926;2023-02-22T03:15:16;6.10;99.90
47336;DHT22;33068;51.990;5.926;2023-02-22T03:17:52;6.10;99.90
47336;DHT22;33068;51.990;5.926;2023-02-22T03:20:26;6.10;99.90
47336;DHT22;33068;51.990;5.926;2023-02-22T03:23:02;6.00;99.90
47336;DHT22;33068;51.990;5.926;2023-02-22T03:25:34;6.10;99.90
47336;DHT22;33068;51.990;5.926;2023-02-22T03:28:06;6.10;99.90
47336;DHT22;33068;51.990;5.926;2023-02-22T03:30:40;6.00;99.90
47336;DHT22;33068;51.990;5.926;2023-02-22T03:33:10;6.00;99.90
47336;DHT22;33068;51.990;5.926;2023-02-22T03:35:43;6.00;99.90
47336;DHT22;33068;51.990;5.926;2023-02-22T03:38:15;6.00;99.90
47336;DHT22;33068;51.990;5.926;2023-02-22T03:40:49;6.10;99.90
47336;DHT22;33068;51.990;5.926;2023-02-22T03:43:23;6.00;99.90
47336;DHT22;33068;51.990;5.926;2023-02-22T03:45:54;6.10;99.90
47336;DHT22;33068;51.990;5.926;2023-02-22T03:48:25;6.00;99.90
47336;DHT22;33068;51.990;5.926;2023-02-22T03:51:03;5.90;99.90
47336;DHT22;33068;51.990;5.926;2023-02-22T03:53:32;5.90;99.90
47336;DHT22;33068;51.990;5.926;2023-02-22T03:56:04;5.80;99.90
47336;DHT22;33068;51.990;5.926;2023-02-22T03:58:36;5.90;99.90
47336;DHT22;33068;51.990;5.926;2023-02-22T04:01:04;5.90;99.90
47336;DHT22;33068;51.990;5.926;2023-02-22T04:03:31;5.80;99.90
47336;DHT22;33068;51.990;5.926;2023-02-22T04:05:58;5.80;99.90
47336;DHT22;33068;51.990;5.926;2023-02-22T04:08:27;5.80;99.90
47336;DHT22;33068;51.990;5.926;2023-02-22T04:10:55;5.80;99.90
47336;DHT22;33068;51.990;5.926;2023-02-22T04:13:25;5.80;99.90
47336;DHT22;33068;51.990;5.926;2023-02-22T04:15:53;5.80;99.90
47336;DHT22;33068;51.990;5.926;2023-02-22T04:18:20;5.80;99.90
47336;DHT22;33068;51.990;5.926;2023-02-22T04:20:48;5.80;99.90
47336;DHT22;33068;51.990;5.926;2023-02-22T04:23:56;5.80;99.90
47336;DHT22;33068;51.990;5.926;2023-02-22T04:26:23;5.80;99.90
47336;DHT22;33068;51.990;5.926;2023-02-22T04:28:54;5.80;99.90
47336;DHT22;33068;51.990;5.926;2023-02-22T04:31:23;5.80;99.90
47336;DHT22;33068;51.990;5.926;2023-02-22T04:33:52;5.80;99.90
47336;DHT22;33068;51.990;5.926;2023-02-22T04:36:24;5.80;99.90
47336;DHT22;33068;51.990;5.926;2023-02-22T04:38:52;5.90;99.90
47336;DHT22;33068;51.990;5.926;2023-02-22T04:41:21;5.80;99.90
47336;DHT22;33068;51.990;5.926;2023-02-22T04:43:49;5.80;99.90
47336;DHT22;33068;51.990;5.926;2023-02-22T04:46:20;5.80;99.90
47336;DHT22;33068;51.990;5.926;2023-02-22T04:48:47;5.80;99.90
47336;DHT22;33068;51.990;5.926;2023-02-22T04:51:15;5.70;99.90
47336;DHT22;33068;51.990;5.926;2023-02-22T04:53:56;5.70;99.90
47336;DHT22;33068;51.990;5.926;2023-02-22T04:56:25;5.70;99.90
47336;DHT22;33068;51.990;5.926;2023-02-22T04:58:52;5.60;99.90
47336;DHT22;33068;51.990;5.926;2023-02-22T05:01:20;5.60;99.90
47336;DHT22;33068;51.990;5.926;2023-02-22T05:03:48;5.60;99.90
47336;DHT22;33068;51.990;5.926;2023-02-22T05:06:15;5.50;99.90
47336;DHT22;33068;51.990;5.926;2023-02-22T05:08:42;5.50;99.90
47336;DHT22;33068;51.990;5.926;2023-02-22T05:11:10;5.60;99.90
47336;DHT22;33068;51.990;5.926;2023-02-22T05:13:38;5.50;99.90
47336;DHT22;33068;51.990;5.926;2023-02-22T05:16:14;5.40;99.90
47336;DHT22;33068;51.990;5.926;2023-02-22T05:18:42;5.50;99.90
47336;DHT22;33068;51.990;5.926;2023-02-22T05:21:09;5.50;99.90
47336;DHT22;33068;51.990;5.926;2023-02-22T05:23:37;5.50;99.90
47336;DHT22;33068;51.990;5.926;2023-02-22T05:26:04;5.60;99.90
47336;DHT22;33068;51.990;5.926;2023-02-22T05:28:32;5.40;99.90
47336;DHT22;33068;51.990;5.926;2023-02-22T05:31:06;5.40;99.90
47336;DHT22;33068;51.990;5.926;2023-02-22T05:33:33;5.40;99.90
47336;DHT22;33068;51.990;5.926;2023-02-22T05:36:00;5.40;99.90
47336;DHT22;33068;51.990;5.926;2023-02-22T05:38:27;5.30;99.90
47336;DHT22;33068;51.990;5.926;2023-02-22T05:40:57;5.30;99.90
47336;DHT22;33068;51.990;5.926;2023-02-22T05:43:27;5.30;99.90
47336;DHT22;33068;51.990;5.926;2023-02-22T05:45:55;5.20;99.90
47336;DHT22;33068;51.990;5.926;2023-02-22T05:48:23;5.20;99.90
47336;DHT22;33068;51.990;5.926;2023-02-22T05:50:50;5.20;99.90
47336;DHT22;33068;51.990;5.926;2023-02-22T05:53:17;5.20;99.90
47336;DHT22;33068;51.990;5.926;2023-02-22T05:55:45;5.20;99.90
47336;DHT22;33068;51.990;5.926;2023-02-22T05:58:12;5.20;99.90
47336;DHT22;33068;51.990;5.926;2023-02-22T06:00:40;5.10;99.90
47336;DHT22;33068;51.990;5.926;2023-02-22T06:03:10;5.10;99.90
47336;DHT22;33068;51.990;5.926;2023-02-22T06:05:40;5.20;99.90
47336;DHT22;33068;51.990;5.926;2023-02-22T06:08:07;5.60;99.90
47336;DHT22;33068;51.990;5.926;2023-02-22T06:10:34;5.10;99.90
47336;DHT22;33068;51.990;5.926;2023-02-22T06:13:04;5.10;99.90
47336;DHT22;33068;51.990;5.926;2023-02-22T06:15:31;5.10;99.90
47336;DHT22;33068;51.990;5.926;2023-02-22T06:17:59;5.10;99.90
47336;DHT22;33068;51.990;5.926;2023-02-22T06:20:28;5.10;99.90
47336;DHT22;33068;51.990;5.926;2023-02-22T06:22:57;5.10;99.90
47336;DHT22;33068;51.990;5.926;2023-02-22T06:25:27;5.00;99.90
47336;DHT22;33068;51.990;5.926;2023-02-22T06:27:56;5.00;99.90
47336;DHT22;33068;51.990;5.926;2023-02-22T06:30:24;5.10;99.90
47336;DHT22;33068;51.990;5.926;2023-02-22T06:32:52;5.00;99.90
47336;DHT22;33068;51.990;5.926;2023-02-22T06:35:20;5.10;99.90
47336;DHT22;33068;51.990;5.926;2023-02-22T06:37:47;5.10;99.90
47336;DHT22;33068;51.990;5.926;2023-02-22T06:40:15;5.10;99.90
47336;DHT22;33068;51.990;5.926;2023-02-22T06:42:43;5.30;99.90
47336;DHT22;33068;51.990;5.926;2023-02-22T06:45:13;5.10;99.90
47336;DHT22;33068;51.990;5.926;2023-02-22T06:47:40;5.10;99.90
47336;DHT22;33068;51.990;5.926;2023-02-22T06:50:18;5.10;99.90
47336;DHT22;33068;51.990;5.926;2023-02-22T06:52:45;5.10;99.90
47336;DHT22;33068;51.990;5.926;2023-02-22T06:55:18;5.10;99.90
47336;DHT22;33068;51.990;5.926;2023-02-22T06:57:45;5.10;99.90
47336;DHT22;33068;51.990;5.926;2023-02-22T07:00:14;5.10;99.90
47336;DHT22;33068;51.990;5.926;2023-02-22T07:02:42;5.20;99.90
47336;DHT22;33068;51.990;5.926;2023-02-22T07:05:10;5.20;99.90
47336;DHT22;33068;51.990;5.926;2023-02-22T07:07:38;5.30;99.90
47336;DHT22;33068;51.990;5.926;2023-02-22T07:10:06;5.20;99.90
47336;DHT22;33068;51.990;5.926;2023-02-22T07:12:35;5.30;99.90
47336;DHT22;33068;51.990;5.926;2023-02-22T07:15:02;5.30;99.90
47336;DHT22;33068;51.990;5.926;2023-02-22T07:17:29;5.30;99.90
47336;DHT22;33068;51.990;5.926;2023-02-22T07:19:56;5.30;99.90
47336;DHT22;33068;51.990;5.926;2023-02-22T07:22:23;5.30;99.90
47336;DHT22;33068;51.990;5.926;2023-02-22T07:24:50;5.40;99.90
47336;DHT22;33068;51.990;5.926;2023-02-22T07:27:17;5.40;99.90
47336;DHT22;33068;51.990;5.926;2023-02-22T07:29:46;5.40;99.90
47336;DHT22;33068;51.990;5.926;2023-02-22T07:32:14;5.40;99.90
47336;DHT22;33068;51.990;5.926;2023-02-22T07:34:41;5.40;99.90
47336;DHT22;33068;51.990;5.926;2023-02-22T07:37:08;5.50;99.90
47336;DHT22;33068;51.990;5.926;2023-02-22T07:39:35;5.50;99.90
47336;DHT22;33068;51.990;5.926;2023-02-22T07:42:03;5.50;99.90
47336;DHT22;33068;51.990;5.926;2023-02-22T07:44:30;5.50;99.90
47336;DHT22;33068;51.990;5.926;2023-02-22T07:46:59;5.60;99.90
47336;DHT22;33068;51.990;5.926;2023-02-22T07:49:27;5.50;99.90
47336;DHT22;33068;51.990;5.926;2023-02-22T07:51:54;5.50;99.90
47336;DHT22;33068;51.990;5.926;2023-02-22T07:54:21;5.50;99.90
47336;DHT22;33068;51.990;5.926;2023-02-22T07:56:48;5.60;99.90
47336;DHT22;33068;51.990;5.926;2023-02-22T07:59:15;5.60;99.90
47336;DHT22;33068;51.990;5.926;2023-02-22T08:01:42;5.70;99.90
47336;DHT22;33068;51.990;5.926;2023-02-22T08:04:10;5.60;99.90
47336;DHT22;33068;51.990;5.926;2023-02-22T08:06:42;5.70;99.90
47336;DHT22;33068;51.990;5.926;2023-02-22T08:09:18;5.70;99.90
47336;DHT22;33068;51.990;5.926;2023-02-22T08:11:47;5.80;99.90
47336;DHT22;33068;51.990;5.926;2023-02-22T08:14:19;6.00;99.90
47336;DHT22;33068;51.990;5.926;2023-02-22T08:16:46;5.80;99.90
47336;DHT22;33068;51.990;5.926;2023-02-22T08:19:15;5.80;99.90
47336;DHT22;33068;51.990;5.926;2023-02-22T08:21:42;5.80;99.90
47336;DHT22;33068;51.990;5.926;2023-02-22T08:24:11;5.90;99.90
47336;DHT22;33068;51.990;5.926;2023-02-22T08:26:43;5.90;99.90
47336;DHT22;33068;51.990;5.926;2023-02-22T08:29:11;5.90;99.90
47336;DHT22;33068;51.990;5.926;2023-02-22T08:31:39;5.90;99.90
47336;DHT22;33068;51.990;5.926;2023-02-22T08:34:12;6.00;99.90
47336;DHT22;33068;51.990;5.926;2023-02-22T08:36:42;6.00;99.90
47336;DHT22;33068;51.990;5.926;2023-02-22T08:39:09;6.00;99.90
47336;DHT22;33068;51.990;5.926;2023-02-22T08:41:36;6.10;99.90
47336;DHT22;33068;51.990;5.926;2023-02-22T08:44:03;6.10;99.90
47336;DHT22;33068;51.990;5.926;2023-02-22T08:46:30;6.10;99.90
47336;DHT22;33068;51.990;5.926;2023-02-22T08:48:57;6.20;99.90
47336;DHT22;33068;51.990;5.926;2023-02-22T08:51:25;6.20;99.90
47336;DHT22;33068;51.990;5.926;2023-02-22T08:53:54;6.30;99.90
47336;DHT22;33068;51.990;5.926;2023-02-22T08:56:21;6.30;99.90
47336;DHT22;33068;51.990;5.926;2023-02-22T08:58:48;6.30;99.90
47336;DHT22;33068;51.990;5.926;2023-02-22T09:01:16;6.60;99.90
47336;DHT22;33068;51.990;5.926;2023-02-22T09:03:47;6.40;99.90
47336;DHT22;33068;51.990;5.926;2023-02-22T09:06:14;6.40;99.90
47336;DHT22;33068;51.990;5.926;2023-02-22T09:08:41;6.50;99.90
47336;DHT22;33068;51.990;5.926;2023-02-22T09:11:10;6.40;99.90
47336;DHT22;33068;51.990;5.926;2023-02-22T09:13:37;6.40;99.90
47336;DHT22;33068;51.990;5.926;2023-02-22T09:16:05;6.60;99.90
47336;DHT22;33068;51.990;5.926;2023-02-22T09:18:32;6.40;99.90
47336;DHT22;33068;51.990;5.926;2023-02-22T09:20:59;6.50;99.90
47336;DHT22;33068;51.990;5.926;2023-02-22T09:23:26;6.60;99.90
47336;DHT22;33068;51.990;5.926;2023-02-22T09:25:53;6.60;99.90
47336;DHT22;33068;51.990;5.926;2023-02-22T09:28:22;6.60;99.90
47336;DHT22;33068;51.990;5.926;2023-02-22T09:30:49;6.80;99.90
47336;DHT22;33068;51.990;5.926;2023-02-22T09:33:18;6.70;99.90
47336;DHT22;33068;51.990;5.926;2023-02-22T09:35:47;6.80;99.90
47336;DHT22;33068;51.990;5.926;2023-02-22T09:38:16;6.80;99.90
47336;DHT22;33068;51.990;5.926;2023-02-22T09:40:48;6.80;99.90
47336;DHT22;33068;51.990;5.926;2023-02-22T09:43:36;6.90;99.90
47336;DHT22;33068;51.990;5.926;2023-02-22T09:46:16;7.00;99.90
47336;DHT22;33068;51.990;5.926;2023-02-22T09:48:53;7.10;99.90
47336;DHT22;33068;51.990;5.926;2023-02-22T09:51:24;7.50;99.90
47336;DHT22;33068;51.990;5.926;2023-02-22T09:53:55;7.30;99.90
47336;DHT22;33068;51.990;5.926;2023-02-22T09:56:24;7.30;99.90
47336;DHT22;33068;51.990;5.926;2023-02-22T09:58:56;7.30;99.90
47336;DHT22;33068;51.990;5.926;2023-02-22T10:01:28;7.40;99.90
47336;DHT22;33068;51.990;5.926;2023-02-22T10:04:03;7.40;99.90
47336;DHT22;33068;51.990;5.926;2023-02-22T10:06:33;7.60;99.90
47336;DHT22;33068;51.990;5.926;2023-02-22T10:09:02;7.50;99.90
47336;DHT22;33068;51.990;5.926;2023-02-22T10:11:47;7.60;99.90
47336;DHT22;33068;51.990;5.926;2023-02-22T10:14:42;7.70;99.90
47336;DHT22;33068;51.990;5.926;2023-02-22T10:17:18;7.70;99.90
47336;DHT22;33068;51.990;5.926;2023-02-22T10:19:57;7.80;99.90
47336;DHT22;33068;51.990;5.926;2023-02-22T10:22:38;7.90;99.90
47336;DHT22;33068;51.990;5.926;2023-02-22T10:25:13;8.20;99.90
47336;DHT22;33068;51.990;5.926;2023-02-22T10:27:47;8.10;99.90
47336;DHT22;33068;51.990;5.926;2023-02-22T10:30:22;8.20;99.90
47336;DHT22;33068;51.990;5.926;2023-02-22T10:32:54;8.30;99.90
47336;DHT22;33068;51.990;5.926;2023-02-22T10:35:44;8.40;99.90
47336;DHT22;33068;51.990;5.926;2023-02-22T10:38:15;8.60;99.90
47336;DHT22;33068;51.990;5.926;2023-02-22T10:40:48;8.50;99.90
47336;DHT22;33068;51.990;5.926;2023-02-22T10:43:15;8.60;99.90
47336;DHT22;33068;51.990;5.926;2023-02-22T10:45:44;8.60;99.90
47336;DHT22;33068;51.990;5.926;2023-02-22T10:48:14;8.50;99.90
47336;DHT22;33068;51.990;5.926;2023-02-22T10:50:45;8.70;99.90
47336;DHT22;33068;51.990;5.926;2023-02-22T10:53:13;9.00;99.90
47336;DHT22;33068;51.990;5.926;2023-02-22T10:56:08;8.80;99.90
47336;DHT22;33068;51.990;5.926;2023-02-22T10:58:50;8.90;99.90
47336;DHT22;33068;51.990;5.926;2023-02-22T11:01:27;9.00;99.90
47336;DHT22;33068;51.990;5.926;2023-02-22T11:04:04;9.20;99.90
47336;DHT22;33068;51.990;5.926;2023-02-22T11:06:34;9.20;99.90
47336;DHT22;33068;51.990;5.926;2023-02-22T11:09:07;9.30;99.90
47336;DHT22;33068;51.990;5.926;2023-02-22T11:11:36;9.50;99.90
47336;DHT22;33068;51.990;5.926;2023-02-22T11:14:04;9.50;99.90
47336;DHT22;33068;51.990;5.926;2023-02-22T11:16:36;9.50;99.90
47336;DHT22;33068;51.990;5.926;2023-02-22T11:19:15;9.50;99.90
47336;DHT22;33068;51.990;5.926;2023-02-22T11:21:45;9.60;99.90
47336;DHT22;33068;51.990;5.926;2023-02-22T11:24:15;9.70;99.90
47336;DHT22;33068;51.990;5.926;2023-02-22T11:26:44;9.90;99.90
47336;DHT22;33068;51.990;5.926;2023-02-22T11:29:19;10.00;99.90
47336;DHT22;33068;51.990;5.926;2023-02-22T11:31:49;10.10;99.90
47336;DHT22;33068;51.990;5.926;2023-02-22T11:34:32;10.30;99.90
47336;DHT22;33068;51.990;5.926;2023-02-22T11:37:16;10.60;99.90
47336;DHT22;33068;51.990;5.926;2023-02-22T11:39:47;10.50;99.90
47336;DHT22;33068;51.990;5.926;2023-02-22T11:42:24;10.50;99.90
47336;DHT22;33068;51.990;5.926;2023-02-22T11:45:08;10.50;99.90
47336;DHT22;33068;51.990;5.926;2023-02-22T11:47:51;10.80;99.90
47336;DHT22;33068;51.990;5.926;2023-02-22T11:50:29;10.70;99.90
47336;DHT22;33068;51.990;5.926;2023-02-22T11:53:22;10.60;99.90
47336;DHT22;33068;51.990;5.926;2023-02-22T11:56:00;10.50;99.90
47336;DHT22;33068;51.990;5.926;2023-02-22T11:58:41;10.50;99.90
47336;DHT22;33068;51.990;5.926;2023-02-22T12:01:18;10.50;99.90
47336;DHT22;33068;51.990;5.926;2023-02-22T12:04:29;10.40;99.90
47336;DHT22;33068;51.990;5.926;2023-02-22T12:07:20;10.30;99.90
47336;DHT22;33068;51.990;5.926;2023-02-22T12:09:55;10.40;99.90
47336;DHT22;33068;51.990;5.926;2023-02-22T12:12:33;10.40;99.90
47336;DHT22;33068;51.990;5.926;2023-02-22T12:15:10;10.40;99.90
47336;DHT22;33068;51.990;5.926;2023-02-22T12:17:48;10.40;99.90
47336;DHT22;33068;51.990;5.926;2023-02-22T12:20:22;10.50;99.90
47336;DHT22;33068;51.990;5.926;2023-02-22T12:23:02;10.60;99.90
47336;DHT22;33068;51.990;5.926;2023-02-22T12:25:34;10.70;99.90
47336;DHT22;33068;51.990;5.926;2023-02-22T12:28:14;10.90;99.90
47336;DHT22;33068;51.990;5.926;2023-02-22T12:30:45;11.20;99.90
47336;DHT22;33068;51.990;5.926;2023-02-22T12:33:18;11.30;99.90
47336;DHT22;33068;51.990;5.926;2023-02-22T12:35:52;11.30;99.90
47336;DHT22;33068;51.990;5.926;2023-02-22T12:38:27;11.30;99.90
47336;DHT22;33068;51.990;5.926;2023-02-22T12:41:02;11.20;99.90
47336;DHT22;33068;51.990;5.926;2023-02-22T12:43:35;11.20;99.90
47336;DHT22;33068;51.990;5.926;2023-02-22T12:46:10;11.30;99.90
47336;DHT22;33068;51.990;5.926;2023-02-22T12:48:45;11.20;99.90
47336;DHT22;33068;51.990;5.926;2023-02-22T12:51:32;11.20;99.90
47336;DHT22;33068;51.990;5.926;2023-02-22T12:54:09;11.20;99.90
47336;DHT22;33068;51.990;5.926;2023-02-22T12:56:41;11.10;99.90
47336;DHT22;33068;51.990;5.926;2023-02-22T12:59:14;11.00;99.90
47336;DHT22;33068;51.990;5.926;2023-02-22T13:01:44;11.10;99.90
47336;DHT22;33068;51.990;5.926;2023-02-22T13:04:12;11.10;99.90
47336;DHT22;33068;51.990;5.926;2023-02-22T13:07:05;11.20;99.90
47336;DHT22;33068;51.990;5.926;2023-02-22T13:09:53;11.20;99.90
47336;DHT22;33068;51.990;5.926;2023-02-22T13:12:27;11.30;99.90
47336;DHT22;33068;51.990;5.926;2023-02-22T13:15:02;11.20;99.90
47336;DHT22;33068;51.990;5.926;2023-02-22T13:17:41;11.20;99.90
47336;DHT22;33068;51.990;5.926;2023-02-22T13:20:15;11.20;99.90
47336;DHT22;33068;51.990;5.926;2023-02-22T13:22:49;11.20;99.90
47336;DHT22;33068;51.990;5.926;2023-02-22T13:25:22;11.10;99.90
47336;DHT22;33068;51.990;5.926;2023-02-22T13:27:58;11.10;99.90
47336;DHT22;33068;51.990;5.926;2023-02-22T13:30:35;11.10;99.90
47336;DHT22;33068;51.990;5.926;2023-02-22T13:33:28;11.10;99.90
47336;DHT22;33068;51.990;5.926;2023-02-22T13:36:11;11.10;99.90
47336;DHT22;33068;51.990;5.926;2023-02-22T13:48:17;11.30;99.90
47336;DHT22;33068;51.990;5.926;2023-02-22T13:51:07;11.10;99.90
47336;DHT22;33068;51.990;5.926;2023-02-22T13:53:41;11.10;99.90
47336;DHT22;33068;51.990;5.926;2023-02-22T13:56:12;11.20;99.90
47336;DHT22;33068;51.990;5.926;2023-02-22T13:58:47;11.20;99.90
47336;DHT22;33068;51.990;5.926;2023-02-22T14:01:37;11.10;99.90
47336;DHT22;33068;51.990;5.926;2023-02-22T14:10:51;11.20;99.90
47336;DHT22;33068;51.990;5.926;2023-02-22T14:13:21;11.20;99.90
47336;DHT22;33068;51.990;5.926;2023-02-22T14:16:20;11.20;99.90
47336;DHT22;33068;51.990;5.926;2023-02-22T14:18:49;11.20;99.90
47336;DHT22;33068;51.990;5.926;2023-02-22T14:21:25;11.20;99.90
47336;DHT22;33068;51.990;5.926;2023-02-22T14:23:53;11.10;99.90
47336;DHT22;33068;51.990;5.926;2023-02-22T14:26:25;11.20;99.90
47336;DHT22;33068;51.990;5.926;2023-02-22T14:28:57;11.10;99.90
47336;DHT22;33068;51.990;5.926;2023-02-22T14:31:26;11.00;99.90
47336;DHT22;33068;51.990;5.926;2023-02-22T14:34:06;10.90;99.90
47336;DHT22;33068;51.990;5.926;2023-02-22T14:36:40;10.90;99.90
47336;DHT22;33068;51.990;5.926;2023-02-22T14:39:14;10.80;99.90
47336;DHT22;33068;51.990;5.926;2023-02-22T14:41:45;10.80;99.90
47336;DHT22;33068;51.990;5.926;2023-02-22T14:44:22;10.70;99.90
47336;DHT22;33068;51.990;5.926;2023-02-22T14:46:51;10.90;99.90
47336;DHT22;33068;51.990;5.926;2023-02-22T14:49:22;10.80;99.90
47336;DHT22;33068;51.990;5.926;2023-02-22T14:51:55;10.80;99.90
47336;DHT22;33068;51.990;5.926;2023-02-22T14:54:28;10.80;99.90
47336;DHT22;33068;51.990;5.926;2023-02-22T14:57:06;10.70;99.90
47336;DHT22;33068;51.990;5.926;2023-02-22T14:59:51;10.70;99.90
47336;DHT22;33068;51.990;5.926;2023-02-22T15:02:21;10.70;99.90
47336;DHT22;33068;51.990;5.926;2023-02-22T15:04:51;10.70;99.90
47336;DHT22;33068;51.990;5.926;2023-02-22T15:07:23;10.70;99.90
47336;DHT22;33068;51.990;5.926;2023-02-22T15:10:17;10.70;99.90
47336;DHT22;33068;51.990;5.926;2023-02-22T15:12:54;10.70;99.90
47336;DHT22;33068;51.990;5.926;2023-02-22T15:15:37;10.70;99.90
47336;DHT22;33068;51.990;5.926;2023-02-22T15:18:16;10.70;99.90
47336;DHT22;33068;51.990;5.926;2023-02-22T15:20:44;10.70;99.90
47336;DHT22;33068;51.990;5.926;2023-02-22T15:23:14;10.70;99.90
47336;DHT22;33068;51.990;5.926;2023-02-22T15:25:47;10.70;99.90
47336;DHT22;33068;51.990;5.926;2023-02-22T15:28:16;10.70;99.90
47336;DHT22;33068;51.990;5.926;2023-02-22T15:30:45;10.70;99.90
47336;DHT22;33068;51.990;5.926;2023-02-22T15:33:16;10.60;99.90
47336;DHT22;33068;51.990;5.926;2023-02-22T15:35:53;10.60;99.90
47336;DHT22;33068;51.990;5.926;2023-02-22T15:38:26;10.50;99.90
47336;DHT22;33068;51.990;5.926;2023-02-22T15:41:01;10.50;99.90
47336;DHT22;33068;51.990;5.926;2023-02-22T15:43:28;10.40;99.90
47336;DHT22;33068;51.990;5.926;2023-02-22T15:45:59;10.30;99.90
47336;DHT22;33068;51.990;5.926;2023-02-22T15:48:27;10.40;99.90
47336;DHT22;33068;51.990;5.926;2023-02-22T15:51:06;10.30;99.90
47336;DHT22;33068;51.990;5.926;2023-02-22T15:53:41;10.20;99.90
47336;DHT22;33068;51.990;5.926;2023-02-22T15:56:13;10.20;99.90
47336;DHT22;33068;51.990;5.926;2023-02-22T15:58:41;10.10;99.90
47336;DHT22;33068;51.990;5.926;2023-02-22T16:01:13;10.10;99.90
47336;DHT22;33068;51.990;5.926;2023-02-22T16:03:44;10.10;99.90
47336;DHT22;33068;51.990;5.926;2023-02-22T16:06:14;10.10;99.90
47336;DHT22;33068;51.990;5.926;2023-02-22T16:08:49;10.10;99.90
47336;DHT22;33068;51.990;5.926;2023-02-22T16:11:22;10.10;99.90
47336;DHT22;33068;51.990;5.926;2023-02-22T16:14:04;10.10;99.90
47336;DHT22;33068;51.990;5.926;2023-02-22T16:16:39;10.10;99.90
47336;DHT22;33068;51.990;5.926;2023-02-22T16:19:30;10.10;99.90
47336;DHT22;33068;51.990;5.926;2023-02-22T16:22:00;10.10;99.90
47336;DHT22;33068;51.990;5.926;2023-02-22T16:24:30;10.00;99.90
47336;DHT22;33068;51.990;5.926;2023-02-22T16:27:15;10.00;99.90
47336;DHT22;33068;51.990;5.926;2023-02-22T16:29:43;10.00;99.90
47336;DHT22;33068;51.990;5.926;2023-02-22T16:32:12;10.00;99.90
47336;DHT22;33068;51.990;5.926;2023-02-22T16:34:40;10.00;99.90